Time;durP1;ratioP1;P1;durP2;ratioP2;P2;SDS_P1;SDS_P2;PMS_P1;PMS_P2;Temp;Humidity;BMP_temperature;BMP_pressure;BME280_temperature;BME280_humidity;BME280_pressure;Samples;Min_cycle;Max_cycle;Signal;HPM_P1;HPM_P2
2022/02/07 00:01:04;;;;;;;3.88;3.40;;;;;;;2.05;77.45;98988.97;8896751;32;21036;-76
2022/02/07 00:06:09;;;;;;;0.60;0.60;;;;;;;1.81;78.88;99017.97;8897122;32;20194;-76
2022/02/07 00:11:15;;;;;;;0.57;0.57;;;;;;;1.34;82.15;99088.06;8897241;32;20307;-76
2022/02/07 00:16:18;;;;;;;0.60;0.60;;;;;;;1.49;82.28;99110.91;8896216;32;20185;-76
2022/02/07 00:21:21;;;;;;;0.60;0.60;;;;;;;1.09;82.78;99093.19;8896212;32;20246;-76
2022/02/07 00:26:25;;;;;;;0.60;0.60;;;;;;;1.03;82.86;99113.78;8896210;32;20658;-75
2022/02/07 00:31:29;;;;;;;0.68;0.68;;;;;;;1.14;82.95;99128.16;8896416;32;20446;-76
2022/02/07 00:36:32;;;;;;;0.60;0.60;;;;;;;1.13;83.41;99137.88;8870470;32;20276;-77
2022/02/07 00:41:42;;;;;;;0.70;0.70;;;;;;;1.19;82.80;99153.38;8895565;32;20250;-76
2022/02/07 00:46:51;;;;;;;1.10;1.10;;;;;;;1.25;82.47;99158.28;8869900;32;20604;-76
2022/02/07 00:51:55;;;;;;;0.60;0.60;;;;;;;1.02;82.56;99172.09;8894491;32;20149;-76
2022/02/07 00:57:00;;;;;;;1.07;1.07;;;;;;;1.26;82.59;99194.38;8895891;32;20278;-76
2022/02/07 01:02:04;;;;;;;0.60;0.60;;;;;;;0.68;84.89;99228.75;8869800;32;20177;-76
2022/02/07 01:07:09;;;;;;;0.70;0.70;;;;;;;0.30;85.95;99239.72;8893625;32;20181;-76
2022/02/07 01:12:21;;;;;;;0.60;0.60;;;;;;;0.03;86.89;99253.56;8869261;32;20177;-77
2022/02/07 01:18:29;;;;;;;0.60;0.60;;;;;;;0.41;86.15;99273.47;8897155;32;20150;-77
2022/02/07 01:23:39;;;;;;;0.50;0.50;;;;;;;0.35;86.96;99306.38;8896316;32;20664;-78
2022/02/07 01:55:54;;;;;;;0.70;0.70;;;;;;;0.11;87.36;99411.56;8867812;32;20763;-76
2022/02/07 02:00:59;;;;;;;0.50;0.50;;;;;;;0.42;85.97;99425.78;8870225;32;20188;-77
2022/02/07 02:06:07;;;;;;;0.57;0.57;;;;;;;0.15;86.03;99443.03;8898860;32;20344;-76
2022/02/07 02:11:23;;;;;;;0.50;0.50;;;;;;;0.31;84.75;99464.19;8896960;32;20196;-77
2022/02/07 02:16:33;;;;;;;0.55;0.55;;;;;;;0.34;84.76;99455.25;8897604;32;20184;-76
2022/02/07 02:33:00;;;;;;;4.10;1.13;;;;;;;0.56;83.64;99502.53;8898010;32;20633;-77
2022/02/07 02:38:08;;;;;;;10.40;2.23;;;;;;;0.25;84.53;99545.53;8896992;32;20991;-76
2022/02/07 02:48:40;;;;;;;4.60;2.20;;;;;;;0.70;82.51;99571.34;8896231;32;20146;-77
2022/02/07 02:53:44;;;;;;;4.03;2.07;;;;;;;0.61;82.60;99571.84;8895972;32;20561;-75
2022/02/07 02:58:49;;;;;;;4.88;2.08;;;;;;;0.52;82.23;99586.41;8895336;32;20185;-76
2022/02/07 03:03:53;;;;;;;5.78;2.13;;;;;;;0.50;82.69;99593.56;8895746;32;20276;-76
2022/02/07 03:08:58;;;;;;;4.30;2.13;;;;;;;0.83;82.24;99608.56;8898168;32;20422;-75
2022/02/07 03:14:05;;;;;;;3.80;2.10;;;;;;;0.60;83.62;99618.59;8895797;32;20275;-76
2022/02/07 03:19:21;;;;;;;7.32;2.22;;;;;;;0.41;84.29;99636.28;8896051;32;20588;-76
2022/02/07 03:24:29;;;;;;;11.13;2.77;;;;;;;0.77;83.32;99651.22;8896348;32;20196;-76
2022/02/07 03:29:47;;;;;;;5.75;2.60;;;;;;;0.91;82.46;99672.50;8871703;32;20164;-76
2022/02/07 03:34:54;;;;;;;7.07;2.88;;;;;;;1.35;80.51;99697.53;8895956;32;20266;-76
2022/02/07 03:39:57;;;;;;;7.78;2.20;;;;;;;1.02;80.63;99699.22;8895780;32;20195;-76
2022/02/07 03:45:02;;;;;;;14.23;2.45;;;;;;;1.14;79.86;99707.44;8897124;32;20238;-76
2022/02/07 03:50:10;;;;;;;3.17;1.80;;;;;;;1.51;78.75;99732.81;8895081;32;20185;-76
2022/02/07 03:55:20;;;;;;;5.20;2.22;;;;;;;1.48;79.32;99748.84;8870372;32;20726;-76
2022/02/07 04:00:25;;;;;;;4.35;2.20;;;;;;;1.35;79.10;99748.66;8895286;32;20595;-76
2022/02/07 04:05:47;;;;;;;9.38;2.33;;;;;;;1.57;78.86;99768.69;8871528;32;20157;-77
2022/02/07 04:11:00;;;;;;;11.38;1.98;;;;;;;1.52;78.59;99779.50;8896748;32;20259;-76
2022/02/07 04:16:07;;;;;;;12.77;2.33;;;;;;;1.27;78.99;99785.25;8871064;32;20196;-76
2022/02/07 04:21:13;;;;;;;5.90;2.25;;;;;;;1.71;78.49;99804.06;8894726;32;20453;-76
2022/02/07 04:26:17;;;;;;;14.35;2.53;;;;;;;1.77;78.01;99824.06;8894434;32;20613;-75
2022/02/07 04:31:24;;;;;;;8.48;2.67;;;;;;;1.56;77.81;99825.22;8895265;32;20181;-76
2022/02/07 04:36:27;;;;;;;12.05;2.25;;;;;;;1.48;79.42;99870.59;8895057;32;20420;-76
2022/02/07 04:41:31;;;;;;;12.27;3.05;;;;;;;1.72;79.01;99894.94;8895619;32;20177;-76
2022/02/07 04:46:48;;;;;;;4.93;2.00;;;;;;;1.61;78.85;99876.97;8869834;32;20297;-77
2022/02/07 04:52:02;;;;;;;6.38;1.80;;;;;;;1.80;79.29;99918.41;8893905;32;20153;-76
2022/02/07 04:57:13;;;;;;;8.45;2.25;;;;;;;1.55;79.10;99924.94;8869959;32;20168;-76
2022/02/07 05:02:28;;;;;;;8.48;2.53;;;;;;;1.68;78.71;99926.03;8869875;32;20749;-76
2022/02/07 05:18:20;;;;;;;7.50;2.40;;;;;;;2.23;78.30;99977.09;8895272;32;20244;-76
2022/02/07 05:23:41;;;;;;;10.13;2.97;;;;;;;1.85;79.11;99988.72;8894723;32;20249;-76
2022/02/07 05:29:10;;;;;;;8.95;2.50;;;;;;;2.18;79.44;100012.63;8889951;32;20145;-75
2022/02/07 05:34:23;;;;;;;6.63;2.20;;;;;;;1.79;81.99;100017.34;8869554;32;21001;-75
2022/02/07 05:39:36;;;;;;;13.85;2.97;;;;;;;1.93;82.49;100043.97;8868253;32;20223;-75
2022/02/07 05:45:02;;;;;;;8.80;3.60;;;;;;;1.77;82.26;100045.69;8849138;32;20549;-75
2022/02/07 05:50:25;;;;;;;10.50;3.35;;;;;;;1.87;82.92;100052.25;8895303;32;20396;-75
2022/02/07 05:55:47;;;;;;;6.88;2.13;;;;;;;1.74;83.04;100057.28;8894296;32;20150;-75
2022/02/07 06:01:22;;;;;;;5.70;2.92;;;;;;;2.26;81.58;100118.25;8829811;32;20227;-77
2022/02/07 06:06:28;;;;;;;9.32;2.33;;;;;;;2.32;80.74;100119.72;8893149;32;20933;-75
2022/02/07 06:11:31;;;;;;;12.93;2.75;;;;;;;2.40;80.60;100144.91;8894818;32;20219;-75
2022/02/07 06:16:34;;;;;;;12.35;2.35;;;;;;;2.01;82.96;100145.13;8898351;32;20153;-76
2022/02/07 06:21:41;;;;;;;7.55;2.38;;;;;;;2.18;82.77;100170.78;8897930;32;20126;-76
2022/02/07 06:26:44;;;;;;;8.07;2.70;;;;;;;2.04;83.11;100187.34;8870821;32;20253;-76
2022/02/07 06:31:53;;;;;;;7.22;2.75;;;;;;;2.14;82.77;100209.84;8893518;32;20133;-76
2022/02/07 06:36:58;;;;;;;8.15;2.28;;;;;;;2.22;82.32;100221.84;8869477;32;20259;-76
2022/02/07 06:42:04;;;;;;;9.18;3.20;;;;;;;2.39;82.05;100251.03;8892474;32;20211;-76
2022/02/07 06:47:08;;;;;;;10.13;2.63;;;;;;;1.99;81.90;100249.44;8899152;32;20912;-75
2022/02/07 06:52:13;;;;;;;8.77;3.35;;;;;;;2.54;81.31;100274.16;8872683;32;20298;-76
2022/02/07 06:57:20;;;;;;;7.03;2.30;;;;;;;2.32;81.08;100279.63;8897468;32;20209;-76
2022/02/07 07:02:26;;;;;;;11.60;3.08;;;;;;;2.42;80.65;100287.16;8897789;32;20134;-76
2022/02/07 07:07:33;;;;;;;7.90;3.63;;;;;;;2.00;81.56;100296.19;8897065;32;20649;-76
2022/02/07 07:12:36;;;;;;;13.57;3.22;;;;;;;2.04;81.33;100333.09;8897126;32;20475;-76
2022/02/07 07:17:41;;;;;;;14.63;2.50;;;;;;;2.27;81.04;100341.75;8872292;32;20181;-76
2022/02/07 07:22:46;;;;;;;9.25;3.28;;;;;;;1.99;81.02;100348.34;8896211;32;20157;-76
2022/02/07 07:28:01;;;;;;;7.75;2.20;;;;;;;2.19;80.89;100347.41;8896456;32;20223;-77
2022/02/07 07:33:13;;;;;;;10.80;2.67;;;;;;;2.58;79.63;100373.88;8871956;32;20196;-77
2022/02/07 07:38:19;;;;;;;11.32;3.53;;;;;;;2.06;80.21;100397.47;8871156;32;20142;-76
2022/02/07 07:43:23;;;;;;;8.35;2.65;;;;;;;2.33;79.11;100399.78;8895567;32;20574;-76
2022/02/07 07:48:51;;;;;;;8.55;2.58;;;;;;;2.51;78.65;100401.56;8896579;32;20235;-75
2022/02/07 07:54:23;;;;;;;7.13;2.85;;;;;;;2.57;77.26;100409.25;8896475;32;21556;-76
2022/02/07 08:04:57;;;;;;;6.97;2.60;;;;;;;3.09;75.39;100464.28;8871903;32;20142;-75
2022/02/07 08:10:25;;;;;;;9.15;2.47;;;;;;;3.13;74.69;100467.66;8896377;32;20188;-76
2022/02/07 08:15:34;;;;;;;6.32;2.15;;;;;;;3.60;72.76;100480.38;8895710;32;20436;-77
2022/02/07 08:20:38;;;;;;;4.63;2.67;;;;;;;3.60;72.18;100493.66;8896593;32;20422;-76
2022/02/07 08:25:42;;;;;;;4.45;1.95;;;;;;;3.52;72.08;100512.63;8896464;32;20189;-76
2022/02/07 08:30:45;;;;;;;5.93;2.00;;;;;;;3.87;71.54;100513.50;8897478;32;20536;-75
2022/02/07 08:35:48;;;;;;;4.78;1.95;;;;;;;4.36;68.51;100524.25;8896926;32;20942;-77
2022/02/07 08:40:53;;;;;;;9.70;2.50;;;;;;;4.18;70.13;100533.19;8894690;32;20494;-76
2022/02/07 08:45:56;;;;;;;5.30;1.83;;;;;;;4.31;70.14;100555.53;8870470;32;20213;-76
2022/02/07 08:50:59;;;;;;;3.60;1.92;;;;;;;4.68;69.39;100553.59;8897873;32;20468;-77
2022/02/07 08:56:05;;;;;;;6.10;2.20;;;;;;;4.56;69.39;100568.41;8895882;32;20426;-75
2022/02/07 09:01:15;;;;;;;8.02;2.80;;;;;;;4.49;69.33;100574.97;8895590;32;20189;-75
2022/02/07 09:06:31;;;;;;;10.98;3.20;;;;;;;4.93;68.53;100587.72;8895276;32;20245;-75
2022/02/07 09:11:35;;;;;;;10.32;3.28;;;;;;;4.91;68.49;100610.91;8895092;32;20137;-76
2022/02/07 09:16:40;;;;;;;11.90;3.25;;;;;;;5.36;67.08;100628.00;8897037;32;20321;-76
2022/02/07 09:21:43;;;;;;;13.55;3.55;;;;;;;4.77;69.09;100643.59;8868826;32;20191;-76
2022/02/07 09:26:49;;;;;;;12.15;3.35;;;;;;;5.32;67.28;100666.44;8894910;32;20180;-76
2022/02/07 09:31:52;;;;;;;12.98;4.15;;;;;;;5.66;66.81;100681.41;8894695;32;20989;-76
2022/02/07 09:36:56;;;;;;;20.42;4.03;;;;;;;5.35;66.08;100695.56;8894890;32;20145;-76
2022/02/07 09:42:03;;;;;;;15.30;3.78;;;;;;;6.37;64.99;100694.22;8894563;32;20142;-76
2022/02/07 09:47:08;;;;;;;8.68;3.15;;;;;;;6.14;63.42;100702.69;8894762;32;20894;-77
2022/02/07 09:52:11;;;;;;;12.23;3.47;;;;;;;6.55;63.67;100715.44;8894555;32;20177;-76
2022/02/07 09:57:18;;;;;;;15.43;4.75;;;;;;;7.14;60.25;100732.41;8894986;32;20204;-76
2022/02/07 10:02:31;;;;;;;14.07;3.88;;;;;;;6.64;59.43;100765.66;8894747;32;20249;-76
2022/02/07 10:07:41;;;;;;;17.52;4.38;;;;;;;6.70;59.18;100762.59;8894791;32;20146;-76
2022/02/07 10:13:06;;;;;;;11.50;4.35;;;;;;;6.76;59.38;100794.28;8895170;32;20181;-76
2022/02/07 10:18:17;;;;;;;17.02;4.18;;;;;;;7.65;57.95;100794.28;8894854;32;20952;-77
2022/02/07 10:39:33;;;;;;;14.38;3.28;;;;;;;6.83;60.80;100832.19;8900263;32;20639;-76
2022/02/07 10:44:44;;;;;;;13.20;4.32;;;;;;;6.55;62.74;100847.09;8873990;32;20495;-77
2022/02/07 10:50:03;;;;;;;19.65;4.65;;;;;;;7.72;61.38;100857.13;8899688;32;20966;-76
2022/02/07 10:55:19;;;;;;;10.02;2.97;;;;;;;6.99;58.47;100842.84;8884864;32;20497;-77
2022/02/07 11:00:29;;;;;;;9.88;3.50;;;;;;;7.99;58.84;100850.16;8904756;32;20970;-77
2022/02/07 11:05:40;;;;;;;12.77;3.88;;;;;;;7.59;59.87;100858.81;8902286;32;20181;-76
2022/02/07 11:11:05;;;;;;;20.17;3.78;;;;;;;7.60;56.97;100862.38;8900741;32;20177;-76
2022/02/07 11:16:18;;;;;;;15.57;3.85;;;;;;;7.81;57.09;100890.44;8901409;32;20177;-76
2022/02/07 11:21:34;;;;;;;18.30;5.07;;;;;;;8.56;55.58;100891.13;8870614;32;20157;-76
2022/02/07 11:26:47;;;;;;;18.85;4.25;;;;;;;9.44;53.91;100888.84;8873207;32;20269;-75
2022/02/07 11:31:53;;;;;;;16.05;4.10;;;;;;;8.90;53.17;100885.38;8897249;32;20237;-75
2022/02/07 11:37:21;;;;;;;17.80;3.90;;;;;;;9.15;53.86;100903.38;8897700;32;20179;-76
2022/02/07 11:42:24;;;;;;;10.43;3.63;;;;;;;8.92;53.81;100895.03;8897663;32;20166;-75
2022/02/07 11:47:31;;;;;;;15.10;4.10;;;;;;;7.77;58.02;100894.28;8899606;32;20129;-76
2022/02/07 11:52:42;;;;;;;11.55;4.00;;;;;;;8.82;54.36;100918.88;8872606;32;20242;-75
2022/02/07 11:57:54;;;;;;;18.70;4.57;;;;;;;7.27;57.67;100938.28;8898052;32;20181;-76
2022/02/07 12:03:05;;;;;;;11.70;3.58;;;;;;;6.95;56.79;100942.81;8898774;32;20184;-76
2022/02/07 12:08:17;;;;;;;11.88;4.88;;;;;;;7.26;57.20;100940.06;8877914;32;21108;-75
2022/02/07 12:13:33;;;;;;;13.82;4.03;;;;;;;8.77;52.93;100936.22;8897866;32;20180;-77
2022/02/07 12:18:38;;;;;;;8.43;4.38;;;;;;;9.49;50.82;100960.97;8775204;32;20169;-77
2022/02/07 12:23:41;;;;;;;9.70;3.00;;;;;;;9.42;50.06;100944.41;8687743;32;20146;-75
2022/02/07 12:28:48;;;;;;;10.40;4.03;;;;;;;8.40;52.64;100958.13;8715934;32;21313;-75
2022/02/07 12:33:59;;;;;;;13.18;3.30;;;;;;;6.63;54.17;100958.78;8712468;32;20909;-74
2022/02/07 12:39:07;;;;;;;14.38;3.58;;;;;;;7.19;55.08;100972.59;8722320;32;20185;-76
2022/02/07 12:44:17;;;;;;;8.27;2.90;;;;;;;5.88;54.04;100963.69;8721041;32;20398;-78
2022/02/07 12:49:24;;;;;;;10.63;3.95;;;;;;;6.09;55.13;100979.53;8716250;32;20451;-76
2022/02/07 12:54:27;;;;;;;7.50;3.05;;;;;;;6.57;51.79;100983.16;8737643;32;20149;-77
2022/02/07 12:59:31;;;;;;;12.27;3.20;;;;;;;6.55;53.62;100998.38;8730494;32;20197;-77
2022/02/07 13:04:36;;;;;;;9.20;2.83;;;;;;;5.66;55.72;100995.06;8720858;32;20463;-76
2022/02/07 13:09:50;;;;;;;10.00;3.25;;;;;;;6.67;55.70;100996.88;8717754;32;20411;-77
2022/02/07 13:14:57;;;;;;;11.30;3.70;;;;;;;9.14;51.41;100995.47;8736156;32;21129;-77
2022/02/07 13:20:08;;;;;;;8.00;3.55;;;;;;;9.38;50.27;100993.84;8723463;32;20290;-77
2022/02/07 13:25:13;;;;;;;14.05;3.20;;;;;;;7.62;50.79;101005.69;8718999;32;20400;-76
2022/02/07 13:30:16;;;;;;;14.20;3.33;;;;;;;6.60;54.34;101010.53;8715560;32;20185;-77
2022/02/07 13:35:22;;;;;;;10.25;3.20;;;;;;;6.87;54.97;101035.81;8712153;32;20449;-76
2022/02/07 13:40:25;;;;;;;11.75;3.08;;;;;;;6.99;53.44;101035.16;8730012;32;20284;-76
2022/02/07 13:45:31;;;;;;;8.18;2.97;;;;;;;7.38;52.75;101042.75;8697703;32;20246;-75
2022/02/07 13:50:40;;;;;;;16.70;3.33;;;;;;;8.89;48.83;101039.94;8727362;32;20491;-76
2022/02/07 13:55:46;;;;;;;12.05;2.92;;;;;;;10.73;46.70;101038.25;8730736;32;20188;-75
2022/02/07 14:00:58;;;;;;;10.43;2.28;;;;;;;9.73;45.20;101039.75;8733494;32;20153;-76
2022/02/07 14:06:16;;;;;;;9.40;2.17;;;;;;;9.88;44.80;101066.56;8732190;32;20448;-75
2022/02/07 14:11:24;;;;;;;11.00;3.38;;;;;;;8.95;47.13;101071.69;8726975;32;20957;-75
2022/02/07 14:16:27;;;;;;;7.07;2.80;;;;;;;8.14;48.11;101076.66;8703686;32;20181;-76
2022/02/07 14:21:33;;;;;;;8.30;2.55;;;;;;;7.32;52.01;101096.53;8725718;32;21551;-75
2022/02/07 14:26:37;;;;;;;8.60;2.90;;;;;;;7.97;49.69;101101.72;8737615;32;20500;-76
2022/02/07 14:31:40;;;;;;;7.82;2.72;;;;;;;6.49;53.07;101119.69;8737162;32;20408;-76
2022/02/07 14:36:45;;;;;;;9.98;3.08;;;;;;;5.80;55.06;101117.88;8738337;32;20900;-75
2022/02/07 14:41:50;;;;;;;7.25;2.60;;;;;;;5.72;56.01;101138.72;8739772;32;20165;-74
2022/02/07 14:47:04;;;;;;;15.75;2.92;;;;;;;6.16;56.30;101141.84;8737757;32;20869;-74
2022/02/07 14:52:09;;;;;;;8.70;3.28;;;;;;;5.88;57.28;101160.16;8724408;32;20398;-74
2022/02/07 14:57:12;;;;;;;11.95;2.80;;;;;;;6.06;57.99;101161.03;8729679;32;20264;-75
2022/02/07 15:02:15;;;;;;;11.18;2.92;;;;;;;5.41;58.92;101158.00;8732284;32;20153;-75
2022/02/07 15:07:20;;;;;;;8.43;2.80;;;;;;;6.17;58.63;101162.25;8722095;32;20448;-76
2022/02/07 15:12:26;;;;;;;10.57;3.53;;;;;;;6.64;57.67;101168.78;8721884;32;20181;-74
2022/02/07 15:17:30;;;;;;;9.55;3.55;;;;;;;6.88;56.45;101168.44;8723422;32;20507;-75
2022/02/07 15:22:35;;;;;;;9.55;4.00;;;;;;;6.28;57.48;101164.38;8718755;32;20474;-75
2022/02/07 15:27:38;;;;;;;6.38;2.67;;;;;;;5.82;56.79;101161.34;8717553;32;20456;-75
2022/02/07 15:33:01;;;;;;;7.25;2.33;;;;;;;5.94;56.37;101170.53;8717181;32;20446;-75
2022/02/07 15:38:07;;;;;;;10.07;2.50;;;;;;;5.87;58.34;101177.09;8717108;32;20391;-75
2022/02/07 15:43:10;;;;;;;8.82;2.15;;;;;;;5.71;58.27;101185.00;8715720;32;20178;-75
2022/02/07 15:48:14;;;;;;;8.88;2.63;;;;;;;5.35;59.47;101206.22;8711171;32;20174;-75
2022/02/07 15:53:19;;;;;;;10.55;2.30;;;;;;;5.44;59.38;101201.34;8714274;32;20401;-75
2022/02/07 15:58:22;;;;;;;4.75;2.50;;;;;;;5.30;60.98;101205.59;8722215;32;20170;-75
2022/02/07 16:03:25;;;;;;;7.90;3.25;;;;;;;4.87;62.46;101220.78;8715196;32;20179;-76
2022/02/07 16:08:29;;;;;;;9.75;2.72;;;;;;;4.86;63.58;101235.03;8717006;32;21630;-75
2022/02/07 16:13:37;;;;;;;9.73;2.53;;;;;;;5.00;62.07;101232.66;8717272;32;20413;-75
2022/02/07 16:18:40;;;;;;;6.78;2.08;;;;;;;4.89;60.80;101232.25;8714212;32;20237;-76
2022/02/07 16:23:45;;;;;;;7.68;2.20;;;;;;;4.78;60.39;101236.22;8714464;32;20184;-76
2022/02/07 16:28:48;;;;;;;3.47;1.83;;;;;;;4.66;60.59;101243.88;8720868;32;20434;-75
2022/02/07 16:33:51;;;;;;;5.57;1.88;;;;;;;4.43;60.86;101250.16;8716789;32;20499;-75
2022/02/07 16:38:56;;;;;;;6.20;3.35;;;;;;;4.32;61.55;101251.47;8707679;32;20406;-74
2022/02/07 16:44:00;;;;;;;9.40;2.60;;;;;;;4.38;61.75;101255.69;8707471;32;20596;-74
2022/02/07 16:49:05;;;;;;;6.20;1.92;;;;;;;4.36;61.84;101257.53;8712121;32;20409;-75
2022/02/07 16:54:11;;;;;;;10.70;2.33;;;;;;;4.05;63.48;101280.03;8714722;32;20509;-77
2022/02/07 16:59:14;;;;;;;7.57;2.30;;;;;;;4.27;63.58;101284.50;8722573;32;20863;-76
2022/02/07 17:04:18;;;;;;;8.25;2.05;;;;;;;4.19;63.78;101276.84;8722625;32;20455;-74
2022/02/07 17:09:22;;;;;;;6.70;2.60;;;;;;;4.42;63.02;101286.56;8722041;32;20234;-76
2022/02/07 17:14:26;;;;;;;6.22;2.55;;;;;;;4.13;63.79;101296.56;8723644;32;20394;-75
2022/02/07 17:19:32;;;;;;;8.77;3.33;;;;;;;3.92;64.77;101290.31;8726690;32;20432;-76
2022/02/07 17:24:36;;;;;;;7.40;2.85;;;;;;;3.91;65.16;101301.00;8721304;32;20270;-76
2022/02/07 17:29:39;;;;;;;11.05;3.25;;;;;;;4.16;64.50;101304.41;8723597;32;20146;-75
2022/02/07 17:34:42;;;;;;;7.82;2.80;;;;;;;4.22;64.83;101302.44;8721948;32;20183;-76
2022/02/07 17:39:46;;;;;;;8.80;2.42;;;;;;;4.08;65.83;101305.66;8719359;32;20187;-75
2022/02/07 17:44:50;;;;;;;6.78;2.58;;;;;;;4.22;64.88;101313.09;8724687;32;20410;-76
2022/02/07 17:49:53;;;;;;;8.65;3.13;;;;;;;3.93;65.73;101318.63;8721985;32;20173;-76
2022/02/07 17:54:57;;;;;;;7.13;2.42;;;;;;;3.98;65.21;101331.75;8719657;32;20142;-76
2022/02/07 18:00:02;;;;;;;9.18;2.67;;;;;;;4.02;65.17;101329.81;8715319;32;20461;-76
2022/02/07 18:05:08;;;;;;;10.77;3.72;;;;;;;4.08;65.33;101345.53;8732146;32;20451;-76
2022/02/07 18:10:14;;;;;;;7.30;2.20;;;;;;;3.99;65.35;101344.09;8737222;32;20674;-76
2022/02/07 18:15:17;;;;;;;6.90;2.28;;;;;;;3.77;66.10;101341.41;8739569;32;20506;-75
2022/02/07 18:20:23;;;;;;;5.72;2.58;;;;;;;3.94;65.96;101348.72;8736880;32;20485;-76
2022/02/07 18:25:29;;;;;;;6.70;2.92;;;;;;;4.08;65.79;101358.84;8740594;32;20467;-76
2022/02/07 18:30:32;;;;;;;10.45;3.47;;;;;;;3.47;67.49;101365.50;8740930;32;20130;-74
2022/02/07 18:35:35;;;;;;;7.82;3.47;;;;;;;3.80;66.92;101372.31;8742432;32;20188;-76
2022/02/07 18:40:42;;;;;;;9.75;3.38;;;;;;;3.71;67.33;101386.81;8736141;32;20928;-75
2022/02/07 18:45:47;;;;;;;7.50;3.05;;;;;;;3.49;68.07;101387.56;8741987;32;20480;-76
2022/02/07 18:50:50;;;;;;;7.53;2.80;;;;;;;4.00;66.52;101385.72;8740924;32;20149;-76
2022/02/07 18:55:55;;;;;;;7.03;2.92;;;;;;;4.01;66.63;101387.47;8730646;32;21903;-76
2022/02/07 19:01:10;;;;;;;8.35;4.13;;;;;;;3.99;66.46;101396.41;8710431;32;20891;-76
2022/02/07 19:06:28;;;;;;;5.53;3.10;;;;;;;3.86;66.83;101394.19;8736504;32;20514;-75
2022/02/07 19:11:36;;;;;;;8.48;3.15;;;;;;;3.81;66.96;101406.78;8727914;32;20444;-79
2022/02/07 19:16:44;;;;;;;5.07;3.22;;;;;;;3.82;67.34;101402.38;8724172;32;20416;-75
2022/02/07 19:21:52;;;;;;;7.85;3.55;;;;;;;3.81;67.59;101404.13;8724088;32;20189;-74
2022/02/07 19:27:07;;;;;;;6.80;3.47;;;;;;;3.87;67.75;101400.41;8741173;32;20264;-76
2022/02/07 19:32:13;;;;;;;7.13;3.45;;;;;;;3.52;69.20;101402.53;8728057;32;20193;-74
2022/02/07 19:37:17;;;;;;;7.22;3.35;;;;;;;3.60;69.36;101404.94;8725530;32;20414;-75
2022/02/07 19:42:29;;;;;;;10.57;4.30;;;;;;;3.61;69.55;101404.84;8733700;32;20409;-75
2022/02/07 19:47:32;;;;;;;13.07;3.45;;;;;;;3.64;70.26;101404.75;8723660;32;20307;-76
2022/02/07 19:52:35;;;;;;;6.75;3.53;;;;;;;3.35;70.86;101396.97;8723373;32;20960;-76
2022/02/07 19:57:41;;;;;;;9.98;3.83;;;;;;;3.49;70.76;101400.00;8722456;32;20516;-75
2022/02/07 20:02:45;;;;;;;9.05;3.17;;;;;;;3.17;71.68;101394.00;8721757;32;20137;-75
2022/02/07 20:07:50;;;;;;;10.45;3.75;;;;;;;3.36;71.79;101393.38;8722652;32;20465;-74
2022/02/07 20:12:54;;;;;;;11.40;4.35;;;;;;;3.52;71.31;101393.72;8723397;32;20153;-76
2022/02/07 20:17:57;;;;;;;35.57;7.73;;;;;;;3.43;72.22;101409.06;8721137;32;20413;-76
2022/02/07 20:23:00;;;;;;;9.05;4.28;;;;;;;3.37;72.29;101403.94;8719929;32;20794;-76
2022/02/07 20:28:08;;;;;;;9.50;3.90;;;;;;;3.50;71.49;101397.28;8720993;32;20402;-76
2022/02/07 20:33:16;;;;;;;9.55;4.00;;;;;;;3.55;71.33;101399.78;8726172;32;20406;-75
2022/02/07 20:38:20;;;;;;;9.70;4.10;;;;;;;3.82;70.54;101420.97;8722351;32;20412;-75
2022/02/07 20:43:25;;;;;;;7.90;3.65;;;;;;;3.52;71.13;101421.13;8724274;32;20181;-76
2022/02/07 20:48:33;;;;;;;12.27;3.55;;;;;;;3.43;71.91;101418.81;8724915;32;21930;-76
2022/02/07 20:53:36;;;;;;;8.45;3.30;;;;;;;3.17;72.18;101425.88;8723554;32;20523;-76
2022/02/07 20:58:40;;;;;;;7.30;3.53;;;;;;;3.39;71.19;101436.63;8720221;32;20526;-76
2022/02/07 21:04:06;;;;;;;6.65;2.75;;;;;;;3.42;71.06;101430.34;8713134;32;20185;-76
2022/02/07 21:09:12;;;;;;;3.38;1.95;;;;;;;3.31;71.20;101425.41;8710817;32;20181;-75
2022/02/07 21:14:17;;;;;;;5.35;3.13;;;;;;;3.55;69.92;101421.03;8718077;32;20398;-76
2022/02/07 21:19:22;;;;;;;7.43;3.15;;;;;;;3.57;69.24;101421.84;8719711;32;20145;-76
2022/02/07 21:24:25;;;;;;;3.30;1.98;;;;;;;3.33;69.99;101428.00;8718549;32;20537;-76
2022/02/07 21:29:30;;;;;;;7.30;2.58;;;;;;;3.60;68.87;101423.53;8717158;32;20433;-77
2022/02/07 21:34:51;;;;;;;7.65;2.70;;;;;;;3.80;67.96;101428.13;8717193;32;20202;-77
2022/02/07 21:39:54;;;;;;;4.47;2.45;;;;;;;3.44;68.40;101425.84;8721572;32;20503;-76
2022/02/07 21:45:03;;;;;;;6.47;1.98;;;;;;;3.28;68.74;101417.53;8727704;32;20439;-76
2022/02/07 21:50:07;;;;;;;7.55;2.47;;;;;;;3.83;67.06;101431.53;8737035;32;20410;-76
2022/02/07 21:55:11;;;;;;;4.22;2.30;;;;;;;3.60;67.27;101426.19;8734981;32;20839;-77
2022/02/07 22:00:17;;;;;;;6.13;2.53;;;;;;;3.52;67.54;101429.09;8738920;32;20390;-76
2022/02/07 22:05:20;;;;;;;7.32;2.58;;;;;;;3.65;66.93;101425.09;8738402;32;20400;-75
2022/02/07 22:10:23;;;;;;;5.90;1.88;;;;;;;3.35;67.33;101423.53;8717486;32;20500;-76
2022/02/07 22:15:55;;;;;;;3.92;2.63;;;;;;;3.43;66.90;101424.13;8738169;32;21109;-75
2022/02/07 22:21:02;;;;;;;7.07;2.50;;;;;;;3.68;66.19;101418.81;8744016;32;20655;-76
2022/02/07 22:26:09;;;;;;;7.38;2.42;;;;;;;3.48;66.75;101423.03;8740313;32;20504;-76
2022/02/07 22:31:17;;;;;;;6.65;2.70;;;;;;;3.61;66.62;101435.88;8734719;32;20148;-76
2022/02/07 22:36:22;;;;;;;2.50;1.70;;;;;;;3.56;66.53;101435.16;8735827;32;20204;-76
2022/02/07 22:41:25;;;;;;;8.18;3.38;;;;;;;3.61;66.48;101433.22;8725403;32;20405;-76
2022/02/07 22:46:30;;;;;;;7.30;2.10;;;;;;;3.62;66.45;101433.19;8727055;32;21954;-77
2022/02/07 22:51:33;;;;;;;6.90;2.55;;;;;;;3.73;66.01;101424.84;8724816;32;20197;-76
2022/02/07 22:56:37;;;;;;;6.13;1.98;;;;;;;3.09;67.53;101419.06;8724019;32;20532;-76
2022/02/07 23:01:41;;;;;;;5.47;2.33;;;;;;;3.80;65.52;101423.66;8729971;32;20164;-75
2022/02/07 23:06:45;;;;;;;3.90;2.00;;;;;;;3.78;65.66;101419.34;8725102;32;20432;-76
2022/02/07 23:12:01;;;;;;;5.07;2.40;;;;;;;3.82;65.80;101405.03;8723206;32;20242;-75
2022/02/07 23:30:43;;;;;;;4.47;2.30;;;;;;;3.62;66.27;101411.03;8711747;32;20486;-76
2022/02/07 23:38:59;;;;;;;5.03;3.00;;;;;;;3.71;65.79;101405.41;8672787;32;20439;-76
2022/02/07 23:44:04;;;;;;;13.38;2.28;;;;;;;3.53;65.86;101396.28;8722843;32;20314;-76
2022/02/07 23:49:23;;;;;;;5.15;2.58;;;;;;;3.40;66.41;101395.88;8720558;32;21956;-76
2022/02/07 23:54:40;;;;;;;7.80;2.65;;;;;;;3.37;66.40;101392.44;8718573;32;20195;-76
2022/02/07 23:59:47;;;;;;;7.35;3.28;;;;;;;3.73;65.73;101395.59;8722517;32;21275;-75
